Time;durP1;ratioP1;P1;durP2;ratioP2;P2;SDS_P1;SDS_P2;PMS_P1;PMS_P2;Temp;Humidity;BMP_temperature;BMP_pressure;BME280_temperature;BME280_humidity;BME280_pressure;Samples;Min_cycle;Max_cycle;Signal;HPM_P1;HPM_P2
2023/01/22 00:01:27;;;;;;;38.93;16.60;;;-0.40;92.50;;;;;;5026367;28;20215;-74
2023/01/22 00:03:53;;;;;;;34.37;15.33;;;-0.40;92.50;;;;;;5028216;28;20284;-75
2023/01/22 00:06:20;;;;;;;38.78;15.98;;;-0.40;92.30;;;;;;5029036;28;20224;-74
2023/01/22 00:08:47;;;;;;;34.72;15.57;;;-0.40;92.30;;;;;;5030345;28;20323;-75
2023/01/22 00:11:13;;;;;;;30.75;15.52;;;-0.40;92.30;;;;;;5033560;28;20198;-75
2023/01/22 00:13:39;;;;;;;32.67;14.35;;;-0.40;92.50;;;;;;5025599;28;20188;-75
2023/01/22 00:16:06;;;;;;;31.27;14.85;;;-0.30;92.50;;;;;;5025164;28;20281;-75
2023/01/22 00:18:31;;;;;;;32.55;15.02;;;-0.30;92.30;;;;;;5024923;28;20243;-74
2023/01/22 00:20:57;;;;;;;33.10;15.87;;;-0.30;92.20;;;;;;5025137;28;20624;-76
2023/01/22 00:23:23;;;;;;;32.53;15.27;;;-0.40;92.10;;;;;;5025987;28;20193;-77
2023/01/22 00:25:58;;;;;;;31.50;13.18;;;-0.40;92.10;;;;;;5027049;28;20186;-76
2023/01/22 00:28:24;;;;;;;32.47;14.90;;;-0.40;92.10;;;;;;5026060;28;20220;-75
2023/01/22 00:30:56;;;;;;;33.40;14.80;;;-0.40;92.10;;;;;;5028434;28;20221;-75
2023/01/22 00:33:22;;;;;;;29.30;13.27;;;-0.40;92.00;;;;;;5028359;28;20189;-75
2023/01/22 00:35:47;;;;;;;26.70;13.63;;;-0.40;91.90;;;;;;5029930;28;20235;-75
2023/01/22 00:38:13;;;;;;;29.83;13.90;;;-0.40;91.80;;;;;;5035540;28;20204;-75
2023/01/22 00:40:38;;;;;;;32.70;15.03;;;-0.40;91.90;;;;;;5031731;28;20198;-74
2023/01/22 00:43:04;;;;;;;33.43;14.80;;;-0.40;91.90;;;;;;5031692;28;20200;-75
2023/01/22 00:45:30;;;;;;;31.37;12.30;;;-0.30;91.90;;;;;;5028257;28;20193;-76
2023/01/22 00:47:55;;;;;;;34.20;12.97;;;-0.30;91.90;;;;;;5027510;28;20658;-76
2023/01/22 00:50:21;;;;;;;36.63;13.90;;;-0.20;91.90;;;;;;5030995;28;20225;-75
2023/01/22 00:52:47;;;;;;;41.33;15.27;;;-0.20;91.80;;;;;;5033101;28;20209;-76
2023/01/22 00:55:12;;;;;;;30.63;13.20;;;-0.20;91.60;;;;;;5035733;28;20185;-75
2023/01/22 00:57:38;;;;;;;27.97;12.70;;;-0.20;91.50;;;;;;5033407;28;20615;-76
2023/01/22 01:00:05;;;;;;;29.07;13.53;;;-0.30;91.30;;;;;;5029755;28;20205;-76
2023/01/22 01:02:30;;;;;;;29.00;13.02;;;-0.30;91.40;;;;;;5025389;28;20182;-76
2023/01/22 01:04:56;;;;;;;30.37;13.23;;;-0.20;91.50;;;;;;5033009;28;20542;-76
2023/01/22 01:07:22;;;;;;;27.20;12.27;;;-0.30;91.50;;;;;;5030945;28;20181;-74
2023/01/22 01:09:47;;;;;;;27.65;12.95;;;-0.30;91.40;;;;;;5028798;28;20253;-76
2023/01/22 01:12:13;;;;;;;30.30;14.17;;;-0.20;91.40;;;;;;5026984;28;20329;-74
2023/01/22 01:14:39;;;;;;;28.73;14.27;;;-0.20;91.30;;;;;;5029717;28;20310;-77
2023/01/22 01:17:04;;;;;;;28.37;12.83;;;-0.20;91.30;;;;;;5029734;28;20189;-76
2023/01/22 01:19:30;;;;;;;31.10;13.10;;;-0.20;91.30;;;;;;5031272;28;20205;-75
2023/01/22 01:21:55;;;;;;;33.60;13.47;;;-0.20;91.20;;;;;;5029937;28;20551;-77
2023/01/22 01:24:21;;;;;;;27.20;13.47;;;-0.20;91.20;;;;;;5030471;28;20193;-77
2023/01/22 01:26:46;;;;;;;32.00;14.57;;;-0.10;91.20;;;;;;5026104;28;20197;-76
2023/01/22 01:29:12;;;;;;;34.93;13.40;;;0.00;91.20;;;;;;5026028;28;20209;-76
2023/01/22 01:31:38;;;;;;;23.17;11.80;;;-0.10;91.00;;;;;;5032115;28;20220;-76
2023/01/22 01:34:04;;;;;;;28.73;14.70;;;-0.10;91.10;;;;;;5028062;28;20192;-76
2023/01/22 01:36:30;;;;;;;25.53;12.07;;;-0.10;90.90;;;;;;5025788;28;20190;-76
2023/01/22 01:38:55;;;;;;;22.13;11.70;;;-0.20;90.70;;;;;;5026750;28;20474;-76
2023/01/22 01:41:25;;;;;;;32.80;13.10;;;-0.20;90.70;;;;;;5031058;28;20985;-75
2023/01/22 01:44:06;;;;;;;27.63;12.98;;;-0.20;90.80;;;;;;5029247;28;20565;-76
2023/01/22 01:46:34;;;;;;;35.03;14.60;;;-0.10;90.90;;;;;;5030914;28;20180;-76
2023/01/22 01:49:00;;;;;;;27.83;13.18;;;-0.10;91.10;;;;;;5027526;28;20248;-76
2023/01/22 01:51:33;;;;;;;22.43;11.70;;;-0.10;90.90;;;;;;5032139;28;20237;-76
2023/01/22 01:54:01;;;;;;;29.83;12.23;;;-0.20;90.90;;;;;;5029144;28;20173;-75
2023/01/22 01:56:31;;;;;;;26.50;13.25;;;-0.20;90.90;;;;;;5024648;28;20181;-74
2023/01/22 01:59:02;;;;;;;31.50;14.00;;;-0.10;91.00;;;;;;5026296;28;20304;-75
2023/01/22 02:01:28;;;;;;;35.60;13.02;;;-0.10;91.10;;;;;;5028176;28;20189;-76
2023/01/22 02:03:54;;;;;;;32.13;14.17;;;0.00;90.90;;;;;;5029600;28;20255;-74
2023/01/22 02:06:20;;;;;;;26.93;12.40;;;0.00;90.90;;;;;;5026897;28;20447;-76
2023/01/22 02:08:47;;;;;;;25.40;12.43;;;-0.10;90.80;;;;;;5029532;28;20205;-76
2023/01/22 02:11:14;;;;;;;29.92;14.38;;;0.00;90.90;;;;;;5032541;28;20267;-76
2023/01/22 02:13:47;;;;;;;28.98;12.75;;;0.10;91.00;;;;;;5035760;28;20169;-75
2023/01/22 02:16:13;;;;;;;23.10;12.05;;;0.10;90.90;;;;;;5034712;28;20238;-75
2023/01/22 02:18:39;;;;;;;26.27;11.83;;;0.10;90.90;;;;;;5037318;28;20219;-75
2023/01/22 02:21:35;;;;;;;28.40;12.83;;;0.20;90.90;;;;;;5029630;28;20298;-75
2023/01/22 02:24:06;;;;;;;26.77;11.90;;;0.20;90.80;;;;;;5044787;28;20185;-75
2023/01/22 02:26:32;;;;;;;25.88;11.95;;;0.20;90.80;;;;;;5031629;28;20177;-75
2023/01/22 02:28:57;;;;;;;31.53;13.47;;;0.30;90.80;;;;;;5022757;28;20221;-74
2023/01/22 02:31:23;;;;;;;24.73;12.03;;;0.30;90.70;;;;;;5028032;28;20543;-74
2023/01/22 02:33:49;;;;;;;27.17;12.20;;;0.20;90.50;;;;;;5027061;28;20173;-74
2023/01/22 02:36:15;;;;;;;27.07;13.80;;;0.10;90.70;;;;;;5031801;28;20232;-74
2023/01/22 02:38:40;;;;;;;32.22;14.65;;;0.10;90.60;;;;;;5028765;28;20295;-75
2023/01/22 02:41:07;;;;;;;28.90;13.90;;;0.00;90.70;;;;;;5029437;28;20268;-73
2023/01/22 02:43:32;;;;;;;38.83;14.63;;;-0.10;90.70;;;;;;5029332;28;20188;-75
2023/01/22 02:45:58;;;;;;;30.47;14.20;;;0.00;90.90;;;;;;5030003;28;20185;-75
2023/01/22 02:48:24;;;;;;;32.03;14.80;;;0.00;91.00;;;;;;5026067;28;20213;-75
2023/01/22 02:50:49;;;;;;;33.70;15.07;;;0.10;91.10;;;;;;5030083;28;20201;-73
2023/01/22 02:53:15;;;;;;;27.57;13.27;;;0.10;91.00;;;;;;5027540;28;20699;-74
2023/01/22 02:55:43;;;;;;;28.63;13.10;;;0.10;91.00;;;;;;5032233;28;20197;-73
2023/01/22 02:58:09;;;;;;;24.65;12.13;;;0.20;91.10;;;;;;5021819;28;20752;-74
2023/01/22 03:00:34;;;;;;;29.73;13.23;;;0.10;91.00;;;;;;5033398;28;20189;-74
2023/01/22 03:03:06;;;;;;;29.93;13.27;;;0.10;91.10;;;;;;5024229;28;20283;-74
2023/01/22 03:05:35;;;;;;;34.47;13.95;;;0.20;91.10;;;;;;5028612;28;20275;-73
2023/01/22 03:08:01;;;;;;;26.85;14.02;;;0.30;91.10;;;;;;5028474;28;20667;-73
2023/01/22 03:10:26;;;;;;;28.93;13.33;;;0.30;91.00;;;;;;5024229;28;20205;-73
2023/01/22 03:21:15;;;;;;;27.88;12.75;;;0.30;90.50;;;;;;5025771;28;20281;-75
2023/01/22 03:23:45;;;;;;;30.67;13.20;;;0.20;90.40;;;;;;5028802;28;20197;-76
2023/01/22 03:26:11;;;;;;;29.10;12.70;;;0.20;90.40;;;;;;5027374;28;20174;-74
2023/01/22 03:28:37;;;;;;;29.83;12.77;;;0.20;90.50;;;;;;5030439;28;20258;-75
2023/01/22 03:31:03;;;;;;;26.43;13.43;;;0.30;90.80;;;;;;5030236;28;20664;-75
2023/01/22 03:33:29;;;;;;;32.78;13.73;;;0.20;90.80;;;;;;5032293;28;20169;-74
2023/01/22 03:36:02;;;;;;;33.77;14.90;;;0.30;90.80;;;;;;5029658;28;20185;-75
2023/01/22 03:38:28;;;;;;;29.40;13.07;;;0.30;90.90;;;;;;5029932;28;20207;-74
2023/01/22 03:41:01;;;;;;;31.17;14.33;;;0.30;90.90;;;;;;5030169;28;20181;-74
2023/01/22 03:43:27;;;;;;;32.90;13.55;;;0.40;90.80;;;;;;5028813;28;20279;-75
2023/01/22 03:45:52;;;;;;;30.23;15.10;;;0.30;90.60;;;;;;5023341;28;20213;-75
2023/01/22 03:48:18;;;;;;;30.30;13.23;;;0.30;90.70;;;;;;5029754;28;20500;-75
2023/01/22 03:50:43;;;;;;;25.97;13.30;;;0.40;90.70;;;;;;5031794;28;20213;-74
2023/01/22 03:53:09;;;;;;;34.27;13.83;;;0.40;90.60;;;;;;5036144;28;20656;-73
2023/01/22 03:55:34;;;;;;;26.80;12.70;;;0.40;90.60;;;;;;5041067;28;20528;-74
2023/01/22 03:58:00;;;;;;;30.77;12.97;;;0.30;90.40;;;;;;5041058;28;20270;-74
2023/01/22 04:00:25;;;;;;;25.57;12.70;;;0.30;90.40;;;;;;5039663;28;20201;-75
2023/01/22 04:02:52;;;;;;;30.93;12.73;;;0.20;90.70;;;;;;5033304;28;20193;-74
2023/01/22 04:05:18;;;;;;;27.52;11.90;;;0.30;90.70;;;;;;5031350;28;20192;-73
2023/01/22 04:07:43;;;;;;;28.87;13.83;;;0.30;90.70;;;;;;5031224;28;20181;-75
2023/01/22 04:10:09;;;;;;;27.80;12.93;;;0.30;90.70;;;;;;5025713;28;20672;-76
2023/01/22 04:12:35;;;;;;;24.90;14.00;;;0.30;90.70;;;;;;5033339;28;20515;-74
2023/01/22 04:15:01;;;;;;;27.77;13.87;;;0.20;90.50;;;;;;5030986;28;20182;-75
2023/01/22 04:17:26;;;;;;;32.73;13.10;;;0.20;90.70;;;;;;5031695;28;20712;-75
2023/01/22 04:19:52;;;;;;;31.20;13.20;;;0.30;90.90;;;;;;5031190;28;20205;-74
2023/01/22 04:22:17;;;;;;;31.60;14.40;;;0.30;90.90;;;;;;5031318;28;20254;-75
2023/01/22 04:24:43;;;;;;;28.63;12.83;;;0.20;90.80;;;;;;5032870;28;20532;-75
2023/01/22 04:27:08;;;;;;;27.97;12.27;;;0.30;90.80;;;;;;5029777;28;20679;-73
2023/01/22 04:29:34;;;;;;;32.00;14.10;;;0.20;90.90;;;;;;5026292;28;20274;-74
2023/01/22 04:31:59;;;;;;;32.13;14.20;;;0.20;91.00;;;;;;5028420;28;20208;-74
2023/01/22 04:34:25;;;;;;;34.40;13.77;;;0.20;90.90;;;;;;5034146;28;20189;-74
2023/01/22 04:36:50;;;;;;;28.60;12.77;;;0.20;91.00;;;;;;5027917;28;20243;-74
2023/01/22 04:39:16;;;;;;;28.63;14.70;;;0.20;91.10;;;;;;5026311;28;20619;-74
2023/01/22 04:41:41;;;;;;;27.20;13.30;;;0.20;91.10;;;;;;5034283;28;20550;-74
2023/01/22 04:44:07;;;;;;;33.50;14.63;;;0.30;91.20;;;;;;5034200;28;20324;-75
2023/01/22 04:46:33;;;;;;;32.37;14.27;;;0.30;91.20;;;;;;5027303;28;20185;-75
2023/01/22 04:48:58;;;;;;;27.27;13.43;;;0.30;91.20;;;;;;5026223;28;20209;-75
2023/01/22 04:51:24;;;;;;;26.77;12.57;;;0.30;91.10;;;;;;5033198;28;20220;-75
2023/01/22 04:53:49;;;;;;;29.60;12.80;;;0.40;91.10;;;;;;5032413;28;20185;-75
2023/01/22 04:56:17;;;;;;;27.00;12.57;;;0.40;91.10;;;;;;5033302;28;20181;-74
2023/01/22 04:58:42;;;;;;;32.25;13.77;;;0.40;91.00;;;;;;5032290;28;20736;-76
2023/01/22 05:01:08;;;;;;;30.43;14.73;;;0.30;90.90;;;;;;5033356;28;20181;-76
2023/01/22 05:03:33;;;;;;;32.47;13.20;;;0.30;91.00;;;;;;5033972;28;20224;-76
2023/01/22 05:06:03;;;;;;;37.20;14.13;;;0.30;91.10;;;;;;5027954;28;20177;-75
2023/01/22 05:08:29;;;;;;;34.55;15.75;;;0.40;91.10;;;;;;5030358;28;20288;-76
2023/01/22 05:10:58;;;;;;;38.93;15.00;;;0.30;91.20;;;;;;5025725;28;20684;-74
2023/01/22 05:13:24;;;;;;;33.25;15.02;;;0.30;91.30;;;;;;5028869;28;20201;-76
2023/01/22 05:15:49;;;;;;;31.33;14.13;;;0.30;91.30;;;;;;5028948;28;20185;-75
2023/01/22 05:18:15;;;;;;;26.03;13.40;;;0.30;91.30;;;;;;5034307;28;20339;-75
2023/01/22 05:20:40;;;;;;;31.73;14.87;;;0.30;91.30;;;;;;5035655;28;20184;-76
2023/01/22 05:23:06;;;;;;;33.37;14.90;;;0.40;91.30;;;;;;5025827;28;20190;-76
2023/01/22 05:25:31;;;;;;;32.90;13.97;;;0.50;91.40;;;;;;5032297;28;20177;-74
2023/01/22 05:27:57;;;;;;;33.60;14.70;;;0.50;91.40;;;;;;5021921;28;20182;-75
2023/01/22 05:30:22;;;;;;;32.50;13.37;;;0.60;91.10;;;;;;5029830;28;20213;-75
2023/01/22 05:32:48;;;;;;;32.47;12.63;;;0.50;90.90;;;;;;5032921;28;20189;-77
2023/01/22 05:35:14;;;;;;;34.90;14.00;;;0.60;90.90;;;;;;5030295;28;20187;-75
2023/01/22 05:37:39;;;;;;;31.87;14.60;;;0.60;91.00;;;;;;5025172;28;20188;-75
2023/01/22 05:40:05;;;;;;;28.63;13.47;;;0.70;91.00;;;;;;5025554;28;20209;-76
2023/01/22 05:42:31;;;;;;;31.27;14.60;;;0.70;90.80;;;;;;5032257;28;20185;-75
2023/01/22 05:44:56;;;;;;;28.63;13.03;;;0.70;90.70;;;;;;5032623;28;20268;-76
2023/01/22 05:47:22;;;;;;;31.80;13.90;;;0.70;90.60;;;;;;5030807;28;20200;-76
2023/01/22 05:49:48;;;;;;;29.10;12.37;;;0.60;90.50;;;;;;5029633;28;20200;-75
2023/01/22 05:52:13;;;;;;;28.97;12.50;;;0.60;90.50;;;;;;5025818;28;20764;-75
2023/01/22 05:54:39;;;;;;;30.60;13.67;;;0.60;90.50;;;;;;5035600;28;20725;-74
2023/01/22 05:57:05;;;;;;;32.60;13.93;;;0.60;90.50;;;;;;5030780;28;20208;-75
2023/01/22 05:59:30;;;;;;;33.40;14.23;;;0.60;90.50;;;;;;5033449;28;20201;-76
2023/01/22 06:01:56;;;;;;;28.17;13.47;;;0.60;90.60;;;;;;5030357;28;20620;-76
2023/01/22 06:04:22;;;;;;;28.07;13.60;;;0.60;90.80;;;;;;5030989;28;20696;-74
2023/01/22 06:06:47;;;;;;;33.73;14.90;;;0.60;90.80;;;;;;5030806;28;20549;-74
2023/01/22 06:09:13;;;;;;;30.70;13.67;;;0.70;90.80;;;;;;5027235;28;20205;-76
2023/01/22 06:11:38;;;;;;;37.80;13.60;;;0.70;90.80;;;;;;5027863;28;20233;-76
2023/01/22 06:14:05;;;;;;;28.13;13.20;;;0.70;90.80;;;;;;5026549;28;20170;-76
2023/01/22 06:16:30;;;;;;;34.25;15.57;;;0.80;90.80;;;;;;5026395;28;20255;-75
2023/01/22 06:18:56;;;;;;;35.30;15.60;;;0.80;90.70;;;;;;5031515;28;20201;-75
2023/01/22 06:21:21;;;;;;;35.97;14.83;;;0.70;90.80;;;;;;5027976;28;20763;-76
2023/01/22 06:23:47;;;;;;;32.63;14.53;;;0.70;90.90;;;;;;5032694;28;20606;-76
2023/01/22 06:26:12;;;;;;;33.93;16.10;;;0.80;90.90;;;;;;5026696;28;20192;-76
2023/01/22 06:28:38;;;;;;;37.33;15.33;;;0.80;90.90;;;;;;5025906;28;20229;-77
2023/01/22 06:31:06;;;;;;;29.77;13.30;;;0.70;91.00;;;;;;5025768;28;20189;-75
2023/01/22 06:33:34;;;;;;;26.77;12.55;;;0.80;91.20;;;;;;5029673;28;20178;-76
2023/01/22 06:36:00;;;;;;;32.92;14.73;;;0.70;91.30;;;;;;5030907;28;20550;-74
2023/01/22 06:38:26;;;;;;;33.72;14.18;;;0.70;91.40;;;;;;5029146;28;20209;-76
2023/01/22 06:40:52;;;;;;;32.57;14.97;;;0.70;91.50;;;;;;5025340;28;20740;-75
2023/01/22 06:43:18;;;;;;;36.03;14.80;;;0.70;91.70;;;;;;5033714;28;20185;-75
2023/01/22 06:45:44;;;;;;;37.80;15.60;;;0.70;91.60;;;;;;5040945;28;20297;-74
2023/01/22 06:48:09;;;;;;;31.57;15.73;;;0.70;91.60;;;;;;5038610;28;20707;-75
2023/01/22 06:50:35;;;;;;;35.93;15.33;;;0.70;91.50;;;;;;5041065;28;20197;-75
2023/01/22 06:53:00;;;;;;;34.53;14.20;;;0.60;91.60;;;;;;5038168;28;20200;-77
2023/01/22 06:55:26;;;;;;;37.50;15.10;;;0.60;91.60;;;;;;5038828;28;20181;-74
2023/01/22 06:57:55;;;;;;;37.50;17.47;;;0.60;91.70;;;;;;5046741;28;20189;-76
2023/01/22 07:00:22;;;;;;;39.58;16.73;;;0.60;91.70;;;;;;5046452;28;20571;-75
2023/01/22 07:02:47;;;;;;;36.95;15.50;;;0.60;91.80;;;;;;5049283;28;20241;-75
2023/01/22 07:05:14;;;;;;;34.57;15.13;;;0.60;92.00;;;;;;5041021;28;20668;-75
2023/01/22 07:07:40;;;;;;;41.20;16.42;;;0.60;92.00;;;;;;5048667;28;20253;-75
2023/01/22 07:10:07;;;;;;;35.83;15.85;;;0.60;92.10;;;;;;5045276;28;20208;-76
2023/01/22 07:12:32;;;;;;;33.40;15.07;;;0.60;92.10;;;;;;5041946;28;20205;-77
2023/01/22 07:14:58;;;;;;;41.13;16.90;;;0.60;92.00;;;;;;5038758;28;20177;-75
2023/01/22 07:17:23;;;;;;;34.20;14.33;;;0.60;92.00;;;;;;5033993;28;20181;-76
2023/01/22 07:19:49;;;;;;;35.83;16.20;;;0.60;92.10;;;;;;5030323;28;20773;-75
2023/01/22 07:22:14;;;;;;;37.83;15.60;;;0.60;92.10;;;;;;5027199;28;20193;-76
2023/01/22 07:24:40;;;;;;;41.87;17.77;;;0.60;92.10;;;;;;5028426;28;20644;-74
2023/01/22 07:27:06;;;;;;;42.07;15.87;;;0.60;92.10;;;;;;5026213;28;20177;-74
2023/01/22 07:29:31;;;;;;;34.80;15.10;;;0.70;92.20;;;;;;5026879;28;20209;-75
2023/01/22 07:31:57;;;;;;;31.27;15.47;;;0.70;92.20;;;;;;5026989;28;20221;-74
2023/01/22 07:34:22;;;;;;;32.60;15.60;;;0.70;92.20;;;;;;5026567;28;20220;-76
2023/01/22 07:36:48;;;;;;;34.63;15.17;;;0.70;92.20;;;;;;5031812;28;20173;-73
2023/01/22 07:39:13;;;;;;;32.50;14.40;;;0.70;92.20;;;;;;5034314;28;20208;-75
2023/01/22 07:41:39;;;;;;;35.93;14.90;;;0.70;92.20;;;;;;5026561;28;20184;-74
2023/01/22 07:44:06;;;;;;;38.73;15.70;;;0.80;92.20;;;;;;5030405;28;20181;-77
2023/01/22 07:46:34;;;;;;;34.35;14.80;;;0.80;92.30;;;;;;5034362;28;20173;-77
2023/01/22 07:49:00;;;;;;;36.55;16.33;;;0.70;92.20;;;;;;5032373;28;20241;-74
2023/01/22 07:51:25;;;;;;;41.33;16.03;;;0.80;92.30;;;;;;5039163;28;20216;-76
2023/01/22 07:53:51;;;;;;;33.50;14.23;;;0.80;92.30;;;;;;5025708;28;20228;-74
2023/01/22 07:56:18;;;;;;;34.63;15.07;;;0.80;92.20;;;;;;5031461;28;20173;-74
2023/01/22 07:58:44;;;;;;;40.65;15.70;;;0.90;92.10;;;;;;5032659;28;20209;-76
2023/01/22 08:01:10;;;;;;;34.33;14.90;;;0.80;92.00;;;;;;5030475;28;20181;-75
2023/01/22 08:03:36;;;;;;;35.90;15.00;;;0.80;92.00;;;;;;5032774;28;20195;-75
2023/01/22 08:06:08;;;;;;;39.60;16.25;;;0.80;91.90;;;;;;5025246;28;20804;-76
2023/01/22 08:08:34;;;;;;;37.10;15.70;;;0.80;92.00;;;;;;5026090;28;20676;-77
2023/01/22 08:10:59;;;;;;;33.33;14.90;;;0.90;92.10;;;;;;5029925;28;20197;-76
2023/01/22 08:13:25;;;;;;;39.10;15.50;;;1.00;92.20;;;;;;5031615;28;20443;-76
2023/01/22 08:15:51;;;;;;;44.27;15.70;;;1.00;92.20;;;;;;5025171;28;20200;-77
2023/01/22 08:18:16;;;;;;;34.83;14.73;;;1.00;92.10;;;;;;5029137;28;20456;-75
2023/01/22 08:20:42;;;;;;;36.63;15.43;;;0.90;91.90;;;;;;5032936;28;20657;-77
2023/01/22 08:23:07;;;;;;;37.17;14.67;;;0.90;91.80;;;;;;5031252;28;20263;-78
2023/01/22 08:25:33;;;;;;;39.20;16.73;;;0.90;92.00;;;;;;5029543;28;20232;-77
2023/01/22 08:28:03;;;;;;;29.70;14.30;;;0.80;92.10;;;;;;5028297;28;20182;-79
2023/01/22 08:30:30;;;;;;;33.90;16.20;;;0.80;92.00;;;;;;5031342;28;20213;-80
2023/01/22 08:32:56;;;;;;;32.67;14.32;;;0.70;92.00;;;;;;5032053;28;20185;-77
2023/01/22 08:35:22;;;;;;;34.40;15.30;;;0.80;92.10;;;;;;5031608;28;20243;-79
2023/01/22 08:37:47;;;;;;;37.57;14.40;;;0.80;92.20;;;;;;5034403;28;20231;-79
2023/01/22 08:40:13;;;;;;;34.20;14.97;;;0.90;92.40;;;;;;5032679;28;20197;-79
2023/01/22 08:42:39;;;;;;;39.23;16.10;;;1.10;92.40;;;;;;5038694;28;20208;-77
2023/01/22 08:45:06;;;;;;;30.55;14.63;;;1.10;92.30;;;;;;5039536;28;20790;-79
2023/01/22 08:47:32;;;;;;;33.03;14.25;;;1.00;92.00;;;;;;5033032;28;20555;-78
2023/01/22 08:49:57;;;;;;;38.53;15.07;;;0.80;91.70;;;;;;5030520;28;20216;-80
2023/01/22 08:52:23;;;;;;;39.80;16.30;;;0.80;91.80;;;;;;5033692;28;20209;-77
2023/01/22 08:54:49;;;;;;;37.87;14.07;;;0.90;91.80;;;;;;5026729;28;20558;-81
2023/01/22 08:57:14;;;;;;;32.37;13.10;;;0.90;91.90;;;;;;5033924;28;20186;-81
2023/01/22 08:59:40;;;;;;;41.23;14.93;;;0.90;91.90;;;;;;5032823;28;20228;-78
2023/01/22 09:02:11;;;;;;;41.53;15.70;;;0.80;91.90;;;;;;5029559;28;20189;-78
2023/01/22 09:04:37;;;;;;;35.97;15.35;;;0.90;92.00;;;;;;5041338;28;20176;-76
2023/01/22 09:07:02;;;;;;;44.03;16.70;;;0.90;92.00;;;;;;5037450;28;20205;-78
2023/01/22 09:09:28;;;;;;;39.33;16.57;;;0.90;92.00;;;;;;5030869;28;20224;-79
2023/01/22 09:11:53;;;;;;;42.53;15.67;;;1.00;92.10;;;;;;5033118;28;20213;-80
2023/01/22 09:14:19;;;;;;;39.97;15.90;;;1.00;92.00;;;;;;5028310;28;20218;-78
2023/01/22 09:16:44;;;;;;;36.03;16.13;;;1.00;91.80;;;;;;5033190;28;20189;-77
2023/01/22 09:19:10;;;;;;;39.20;15.23;;;1.00;91.70;;;;;;5038639;28;20297;-78
2023/01/22 09:21:36;;;;;;;37.57;14.97;;;0.90;91.70;;;;;;5032935;28;20196;-80
2023/01/22 09:24:02;;;;;;;37.23;14.60;;;0.90;91.90;;;;;;5032904;28;20434;-80
2023/01/22 09:26:31;;;;;;;35.85;14.65;;;1.10;92.00;;;;;;5035623;28;20268;-80
2023/01/22 09:28:57;;;;;;;37.20;15.00;;;1.10;92.10;;;;;;5029034;28;20205;-79
2023/01/22 09:31:22;;;;;;;33.67;15.23;;;1.10;91.70;;;;;;5025600;28;20205;-79
2023/01/22 09:33:50;;;;;;;30.80;14.17;;;1.10;91.50;;;;;;5035096;28;20552;-78
2023/01/22 09:36:16;;;;;;;37.20;14.98;;;1.20;91.50;;;;;;5035507;28;20178;-79
2023/01/22 09:38:42;;;;;;;35.60;15.35;;;1.10;91.40;;;;;;5032464;28;20205;-79
2023/01/22 09:41:29;;;;;;;37.08;16.15;;;1.20;91.40;;;;;;5030037;28;20190;-80
2023/01/22 09:44:24;;;;;;;33.95;14.75;;;1.20;91.40;;;;;;5031506;28;20181;-78
2023/01/22 09:46:58;;;;;;;35.58;14.45;;;1.30;91.50;;;;;;5028016;28;20225;-78
2023/01/22 09:49:31;;;;;;;31.08;13.82;;;1.30;91.40;;;;;;5034674;28;20205;-78
2023/01/22 09:51:59;;;;;;;34.25;14.00;;;1.20;91.10;;;;;;5032220;28;20201;-79
2023/01/22 09:54:28;;;;;;;36.72;14.70;;;1.10;91.10;;;;;;5037526;28;20181;-77
2023/01/22 09:56:57;;;;;;;31.15;15.05;;;1.20;91.20;;;;;;5033165;28;20192;-77
2023/01/22 09:59:31;;;;;;;30.88;13.68;;;1.40;91.30;;;;;;5031500;28;20213;-77
2023/01/22 10:02:00;;;;;;;35.35;14.30;;;1.40;91.10;;;;;;5026436;28;20190;-77
2023/01/22 10:04:59;;;;;;;37.55;14.68;;;1.40;90.90;;;;;;5030231;28;20189;-76
2023/01/22 10:07:31;;;;;;;36.63;13.80;;;1.40;90.50;;;;;;5001398;28;20218;-78
2023/01/22 10:10:05;;;;;;;37.85;13.85;;;1.40;90.70;;;;;;5003161;28;20206;-78
2023/01/22 10:12:31;;;;;;;33.70;13.68;;;1.30;90.70;;;;;;5007836;28;20586;-79
2023/01/22 10:14:57;;;;;;;32.30;13.95;;;1.20;90.70;;;;;;4988233;28;20265;-77
2023/01/22 10:17:28;;;;;;;35.80;14.23;;;1.20;90.80;;;;;;4991128;28;20285;-78
2023/01/22 10:19:58;;;;;;;33.50;14.38;;;1.20;91.00;;;;;;5007710;28;20197;-78
2023/01/22 10:22:25;;;;;;;33.20;15.60;;;1.30;91.10;;;;;;5009244;28;20186;-79
2023/01/22 10:24:52;;;;;;;41.13;14.85;;;1.30;91.10;;;;;;4998120;28;20241;-78
2023/01/22 10:27:22;;;;;;;34.42;15.25;;;1.30;91.00;;;;;;5009239;28;20181;-78
2023/01/22 10:30:20;;;;;;;45.38;16.42;;;1.30;91.10;;;;;;5010244;28;20217;-77
2023/01/22 10:33:04;;;;;;;30.20;14.80;;;1.30;91.20;;;;;;5007561;28;20186;-76
2023/01/22 10:35:31;;;;;;;34.38;15.27;;;1.40;91.20;;;;;;5013244;28;20346;-76
2023/01/22 10:37:58;;;;;;;36.00;13.27;;;1.50;91.20;;;;;;5008703;28;20194;-77
2023/01/22 10:40:37;;;;;;;29.17;13.45;;;1.50;90.70;;;;;;5008037;28;20272;-77
2023/01/22 10:43:12;;;;;;;35.67;13.48;;;1.40;90.60;;;;;;5014262;28;20193;-79
2023/01/22 10:45:49;;;;;;;32.08;13.77;;;1.40;90.40;;;;;;5030144;28;20191;-78
2023/01/22 10:48:17;;;;;;;35.10;14.43;;;1.40;90.30;;;;;;5029114;28;20302;-77
2023/01/22 10:50:44;;;;;;;32.63;14.13;;;1.30;90.40;;;;;;5029372;28;20656;-78
2023/01/22 10:53:36;;;;;;;35.53;14.88;;;1.40;90.60;;;;;;5027811;28;20219;-79
2023/01/22 10:56:05;;;;;;;29.02;13.77;;;1.50;90.70;;;;;;5024326;28;20196;-75
2023/01/22 10:58:34;;;;;;;37.65;14.95;;;1.50;90.50;;;;;;5024528;28;20573;-75
2023/01/22 11:01:34;;;;;;;29.95;13.80;;;1.60;90.60;;;;;;5025493;28;20254;-77
2023/01/22 11:04:18;;;;;;;35.38;14.90;;;1.60;90.60;;;;;;5030642;28;20212;-78
2023/01/22 11:06:49;;;;;;;35.40;15.73;;;1.70;90.50;;;;;;5024800;28;20235;-77
2023/01/22 11:09:44;;;;;;;32.08;14.18;;;1.70;90.40;;;;;;5030545;28;20216;-77
2023/01/22 11:12:21;;;;;;;44.35;15.38;;;1.60;90.30;;;;;;5028633;28;20224;-77
2023/01/22 11:15:04;;;;;;;33.10;15.57;;;1.70;90.30;;;;;;5024827;28;20184;-78
2023/01/22 11:17:37;;;;;;;34.20;15.23;;;1.80;90.50;;;;;;5029505;28;20267;-77
2023/01/22 11:20:15;;;;;;;32.72;14.38;;;1.80;90.40;;;;;;5031348;28;20211;-78
2023/01/22 11:22:45;;;;;;;29.80;13.98;;;1.90;90.20;;;;;;5026160;28;20187;-76
2023/01/22 11:25:11;;;;;;;33.75;15.25;;;2.00;90.20;;;;;;5029199;28;20188;-77
2023/01/22 11:27:43;;;;;;;31.20;13.70;;;2.00;89.90;;;;;;5032042;28;20185;-77
2023/01/22 11:30:29;;;;;;;29.67;13.70;;;1.90;89.30;;;;;;5028561;28;20514;-76
2023/01/22 11:33:06;;;;;;;35.95;13.32;;;2.00;89.50;;;;;;5027797;28;20193;-78
2023/01/22 11:35:56;;;;;;;34.03;14.75;;;2.00;89.30;;;;;;5027431;28;20199;-76
2023/01/22 11:38:35;;;;;;;27.80;12.13;;;2.00;89.30;;;;;;5031156;28;20208;-77
2023/01/22 11:41:36;;;;;;;38.33;13.50;;;1.90;88.90;;;;;;5032305;28;20902;-75
2023/01/22 11:44:39;;;;;;;35.28;14.25;;;1.80;88.90;;;;;;5026097;28;20276;-77
2023/01/22 11:47:21;;;;;;;30.85;13.25;;;1.80;89.50;;;;;;5027854;28;20743;-78
2023/01/22 11:50:02;;;;;;;33.63;14.07;;;1.90;89.70;;;;;;5022254;28;20205;-75
2023/01/22 11:52:29;;;;;;;35.28;13.90;;;2.00;89.70;;;;;;5026848;28;20193;-78
2023/01/22 11:55:21;;;;;;;29.67;13.15;;;2.00;89.60;;;;;;5031249;28;20186;-75
2023/01/22 11:58:07;;;;;;;26.08;11.93;;;2.00;89.00;;;;;;5017835;28;20704;-75
2023/01/22 12:00:42;;;;;;;28.63;13.45;;;2.10;88.90;;;;;;5022951;28;20181;-75
2023/01/22 12:03:11;;;;;;;26.92;13.30;;;2.20;88.90;;;;;;5027718;28;20232;-75
2023/01/22 12:05:44;;;;;;;27.25;12.90;;;2.20;88.60;;;;;;5024010;28;20177;-74
2023/01/22 12:08:34;;;;;;;29.27;12.55;;;2.10;88.10;;;;;;5026679;28;20327;-76
2023/01/22 12:11:21;;;;;;;26.43;12.13;;;2.20;88.40;;;;;;5024246;28;20228;-74
2023/01/22 12:13:50;;;;;;;29.00;11.98;;;2.10;88.10;;;;;;5026748;28;20423;-76
2023/01/22 12:16:24;;;;;;;26.40;11.50;;;2.10;88.10;;;;;;5026934;28;20192;-77
2023/01/22 12:19:04;;;;;;;26.98;12.50;;;2.20;88.10;;;;;;5027314;28;20204;-76
2023/01/22 12:21:38;;;;;;;30.60;13.35;;;2.10;87.70;;;;;;5029626;28;20342;-74
2023/01/22 12:24:22;;;;;;;29.70;12.70;;;2.00;87.70;;;;;;5021380;28;20185;-78
2023/01/22 12:27:10;;;;;;;27.15;12.35;;;2.10;87.80;;;;;;5022172;28;20676;-74
2023/01/22 12:30:04;;;;;;;27.48;12.10;;;2.00;87.80;;;;;;5023824;28;20316;-76
2023/01/22 12:32:32;;;;;;;26.73;13.15;;;2.20;88.00;;;;;;5027683;28;20202;-74
2023/01/22 12:35:04;;;;;;;23.67;11.32;;;2.20;88.00;;;;;;5035696;28;20541;-76
2023/01/22 12:38:07;;;;;;;30.02;12.18;;;2.20;87.80;;;;;;5033050;28;20720;-76
2023/01/22 12:41:13;;;;;;;31.83;12.87;;;2.30;87.80;;;;;;5028960;28;20196;-75
2023/01/22 12:43:51;;;;;;;27.95;12.68;;;2.30;87.70;;;;;;5029342;28;20423;-73
2023/01/22 12:47:01;;;;;;;24.27;11.85;;;2.20;87.40;;;;;;5034608;28;20192;-74
2023/01/22 12:49:27;;;;;;;26.73;11.95;;;2.20;87.60;;;;;;5000245;28;20232;-76
2023/01/22 12:51:55;;;;;;;27.07;14.30;;;2.20;87.80;;;;;;5033148;28;20201;-72
2023/01/22 12:54:20;;;;;;;27.63;11.68;;;2.20;88.10;;;;;;5032503;28;20541;-76